KHCD

Hutchinson Municipal-Butler Field Airport

Hutchinson, Minnesota, USA
METAR KHCD 202015Z AUTO 35008KT 10SM SCT015 SCT043 23/20 A2997 RMK AO2 LTG DSNT E AND SE T02320197
Observed Flight Rules
Aug-20 @ 20:15 UTC (16 minutes ago) Visual Flight Rules
Wind Visibility Clouds
350° at 8 knots 10 miles
  • Scattered at 1,500' AGL
  • Scattered at 4,300' AGL
Temperatures Readings
Current 23°C / 73°F
Dewpoint 20°C / 68°F
Humidity 83%
Altimeter 29.97" Hg
Pressure 1015 hPa
Elevation 323
METAR KHCD 202015Z AUTO 35008KT 10SM SCT015 SCT043 23/20 A2997 RMK AO2 LTG DSNT E AND SE T02320197
Observed Flight Rules
Aug-20 @ 20:15 UTC
(16 minutes ago)
VFR
Wind Visibility
350° at 8 knots 10 miles
Clouds
  • Scattered at 1,500' AGL
  • Scattered at 4,300' AGL
Temperature Dewpoint
23°C / 73°F 20°C / 68°F
Humidity Altimeter Pressure
83% 29.97" Hg 1015 hPa